EmailTwitter


Observations de surface / États-Unis / KJFK (74486)

Régions: Québec | Canada | États-Unis | Europe | France | UK | Ailleurs
Station
Affichage
Infos & localisation pour KJFK (74486) | Aide pour décoder les METARs

Observations prises le 2019-01-20 à 07H59 UTC à NEW YORK/JF KENN, NY (KJFK)

Etat du ciel: couvert.

Obstacle(s) à la visibilité: faible pluie et brume.

Température: 3.0 Celsius

Point de rosée: 3.0 Celsius

Humidité relative: 100%

Facteur vent: -2.

Vents: Nord-est à 22 km/h ou 12 noeuds.

Calage altimétrique: 100.47 kilopascals ou 29.67 pouces de mercure.

Visibilité horizontale: 6.00 milles terrestres ou 9.60 kilomètres.

Hauteur du plafond: 152 mètres ( 500 pieds ).

Observation METAR:

KJFK 200759Z 04012KT 6SM -RA BR BKN005 BKN012 OVC025 03/03 A2967 RMK AO2 WSHFT

0739 PRESFR P0001 T00280028=